sensor_id;sensor_type;location;lat;lon;timestamp;temperature;humidity
12726;DHT22;6427;49.754;6.106;2023-03-29T00:01:20;7.20;99.90
12726;DHT22;6427;49.754;6.106;2023-03-29T00:03:47;7.20;99.90
12726;DHT22;6427;49.754;6.106;2023-03-29T00:06:15;7.20;99.90
12726;DHT22;6427;49.754;6.106;2023-03-29T00:08:42;7.20;99.90
12726;DHT22;6427;49.754;6.106;2023-03-29T00:11:10;7.10;99.90
12726;DHT22;6427;49.754;6.106;2023-03-29T00:13:37;7.10;99.90
12726;DHT22;6427;49.754;6.106;2023-03-29T00:16:05;7.10;99.90
12726;DHT22;6427;49.754;6.106;2023-03-29T00:18:33;7.10;99.90
12726;DHT22;6427;49.754;6.106;2023-03-29T00:21:00;7.10;99.90
12726;DHT22;6427;49.754;6.106;2023-03-29T00:23:28;7.10;99.90
12726;DHT22;6427;49.754;6.106;2023-03-29T00:25:55;7.00;99.90
12726;DHT22;6427;49.754;6.106;2023-03-29T00:28:23;7.00;99.90
12726;DHT22;6427;49.754;6.106;2023-03-29T00:30:51;7.20;99.90
12726;DHT22;6427;49.754;6.106;2023-03-29T00:33:19;7.50;99.90
12726;DHT22;6427;49.754;6.106;2023-03-29T00:35:47;7.40;99.90
12726;DHT22;6427;49.754;6.106;2023-03-29T00:38:14;7.40;99.90
12726;DHT22;6427;49.754;6.106;2023-03-29T00:40:42;7.30;99.90
12726;DHT22;6427;49.754;6.106;2023-03-29T00:43:13;7.20;99.90
12726;DHT22;6427;49.754;6.106;2023-03-29T00:45:37;7.20;99.90
12726;DHT22;6427;49.754;6.106;2023-03-29T00:48:17;7.10;99.90
12726;DHT22;6427;49.754;6.106;2023-03-29T00:50:50;7.10;99.90
12726;DHT22;6427;49.754;6.106;2023-03-29T00:53:27;7.10;99.90
12726;DHT22;6427;49.754;6.106;2023-03-29T00:55:54;7.00;99.90
12726;DHT22;6427;49.754;6.106;2023-03-29T00:58:22;7.00;99.90
12726;DHT22;6427;49.754;6.106;2023-03-29T01:00:49;7.00;99.90
12726;DHT22;6427;49.754;6.106;2023-03-29T01:03:15;7.00;99.90
12726;DHT22;6427;49.754;6.106;2023-03-29T01:05:43;7.20;99.90
12726;DHT22;6427;49.754;6.106;2023-03-29T01:08:11;7.20;99.90
12726;DHT22;6427;49.754;6.106;2023-03-29T01:10:42;7.10;99.90
12726;DHT22;6427;49.754;6.106;2023-03-29T01:13:13;7.10;99.90
12726;DHT22;6427;49.754;6.106;2023-03-29T01:15:40;7.00;99.90
12726;DHT22;6427;49.754;6.106;2023-03-29T01:18:07;7.00;99.90
12726;DHT22;6427;49.754;6.106;2023-03-29T01:23:40;6.90;99.90
12726;DHT22;6427;49.754;6.106;2023-03-29T01:31:23;7.10;99.90
12726;DHT22;6427;49.754;6.106;2023-03-29T01:33:48;7.10;99.90
12726;DHT22;6427;49.754;6.106;2023-03-29T01:36:34;7.10;99.90
12726;DHT22;6427;49.754;6.106;2023-03-29T01:39:00;7.10;99.90
12726;DHT22;6427;49.754;6.106;2023-03-29T01:41:31;7.10;99.90
12726;DHT22;6427;49.754;6.106;2023-03-29T01:46:46;7.00;99.90
12726;DHT22;6427;49.754;6.106;2023-03-29T01:51:53;7.00;99.90
12726;DHT22;6427;49.754;6.106;2023-03-29T01:54:24;7.00;99.90
12726;DHT22;6427;49.754;6.106;2023-03-29T01:56:47;7.00;99.90
12726;DHT22;6427;49.754;6.106;2023-03-29T01:59:16;7.00;99.90
12726;DHT22;6427;49.754;6.106;2023-03-29T02:01:47;7.00;99.90
12726;DHT22;6427;49.754;6.106;2023-03-29T02:04:19;7.00;99.90
12726;DHT22;6427;49.754;6.106;2023-03-29T02:06:45;7.00;99.90
12726;DHT22;6427;49.754;6.106;2023-03-29T02:09:12;7.00;99.90
12726;DHT22;6427;49.754;6.106;2023-03-29T02:11:40;7.00;99.90
12726;DHT22;6427;49.754;6.106;2023-03-29T02:14:08;7.00;99.90
12726;DHT22;6427;49.754;6.106;2023-03-29T02:16:38;7.00;99.90
12726;DHT22;6427;49.754;6.106;2023-03-29T02:19:05;7.00;99.90
12726;DHT22;6427;49.754;6.106;2023-03-29T02:21:54;7.00;99.90
12726;DHT22;6427;49.754;6.106;2023-03-29T02:24:19;7.00;99.90
12726;DHT22;6427;49.754;6.106;2023-03-29T02:26:47;7.00;99.90
12726;DHT22;6427;49.754;6.106;2023-03-29T02:29:14;7.00;99.90
12726;DHT22;6427;49.754;6.106;2023-03-29T02:31:43;7.00;99.90
12726;DHT22;6427;49.754;6.106;2023-03-29T02:34:19;7.00;99.90
12726;DHT22;6427;49.754;6.106;2023-03-29T02:36:47;7.00;99.90
12726;DHT22;6427;49.754;6.106;2023-03-29T02:39:14;7.00;99.90
12726;DHT22;6427;49.754;6.106;2023-03-29T02:41:42;7.00;99.90
12726;DHT22;6427;49.754;6.106;2023-03-29T02:44:13;7.00;99.90
12726;DHT22;6427;49.754;6.106;2023-03-29T02:46:39;7.00;99.90
12726;DHT22;6427;49.754;6.106;2023-03-29T02:49:07;7.20;99.90
12726;DHT22;6427;49.754;6.106;2023-03-29T02:51:34;7.30;99.90
12726;DHT22;6427;49.754;6.106;2023-03-29T02:54:04;7.30;99.90
12726;DHT22;6427;49.754;6.106;2023-03-29T02:56:29;7.20;99.90
12726;DHT22;6427;49.754;6.106;2023-03-29T02:58:57;7.20;99.90
12726;DHT22;6427;49.754;6.106;2023-03-29T03:01:25;7.20;99.90
12726;DHT22;6427;49.754;6.106;2023-03-29T03:03:52;7.20;99.90
12726;DHT22;6427;49.754;6.106;2023-03-29T03:06:20;7.20;99.90
12726;DHT22;6427;49.754;6.106;2023-03-29T03:08:47;7.20;99.90
12726;DHT22;6427;49.754;6.106;2023-03-29T03:11:15;7.20;99.90
12726;DHT22;6427;49.754;6.106;2023-03-29T03:13:42;7.10;99.90
12726;DHT22;6427;49.754;6.106;2023-03-29T03:16:10;7.20;99.90
12726;DHT22;6427;49.754;6.106;2023-03-29T03:18:37;7.20;99.90
12726;DHT22;6427;49.754;6.106;2023-03-29T03:21:05;7.20;99.90
12726;DHT22;6427;49.754;6.106;2023-03-29T03:23:33;7.20;99.90
12726;DHT22;6427;49.754;6.106;2023-03-29T03:26:00;7.20;99.90
12726;DHT22;6427;49.754;6.106;2023-03-29T03:28:28;7.20;99.90
12726;DHT22;6427;49.754;6.106;2023-03-29T03:30:55;7.20;99.90
12726;DHT22;6427;49.754;6.106;2023-03-29T03:33:23;7.20;99.90
12726;DHT22;6427;49.754;6.106;2023-03-29T03:35:50;7.20;99.90
12726;DHT22;6427;49.754;6.106;2023-03-29T03:38:18;7.20;99.90
12726;DHT22;6427;49.754;6.106;2023-03-29T03:40:51;7.20;99.90
12726;DHT22;6427;49.754;6.106;2023-03-29T03:43:13;7.40;99.90
12726;DHT22;6427;49.754;6.106;2023-03-29T03:45:41;7.40;99.90
12726;DHT22;6427;49.754;6.106;2023-03-29T03:48:08;7.40;99.90
12726;DHT22;6427;49.754;6.106;2023-03-29T03:50:36;7.40;99.90
12726;DHT22;6427;49.754;6.106;2023-03-29T03:53:03;7.40;99.90
12726;DHT22;6427;49.754;6.106;2023-03-29T03:55:31;7.40;99.90
12726;DHT22;6427;49.754;6.106;2023-03-29T03:57:58;7.30;99.90
12726;DHT22;6427;49.754;6.106;2023-03-29T04:00:26;7.30;99.90
12726;DHT22;6427;49.754;6.106;2023-03-29T04:02:53;7.30;99.90
12726;DHT22;6427;49.754;6.106;2023-03-29T04:05:21;7.60;99.90
12726;DHT22;6427;49.754;6.106;2023-03-29T04:07:48;7.60;99.90
12726;DHT22;6427;49.754;6.106;2023-03-29T04:10:16;7.60;99.90
12726;DHT22;6427;49.754;6.106;2023-03-29T04:12:44;7.60;99.90
12726;DHT22;6427;49.754;6.106;2023-03-29T04:15:11;7.50;99.90
12726;DHT22;6427;49.754;6.106;2023-03-29T04:17:39;7.70;99.90
12726;DHT22;6427;49.754;6.106;2023-03-29T04:20:06;7.70;99.90
12726;DHT22;6427;49.754;6.106;2023-03-29T04:22:34;7.70;99.90
12726;DHT22;6427;49.754;6.106;2023-03-29T04:25:01;7.70;99.90
12726;DHT22;6427;49.754;6.106;2023-03-29T04:27:29;7.80;99.90
12726;DHT22;6427;49.754;6.106;2023-03-29T04:29:56;7.80;99.90
12726;DHT22;6427;49.754;6.106;2023-03-29T04:32:24;8.00;99.90
12726;DHT22;6427;49.754;6.106;2023-03-29T04:34:51;7.90;99.90
12726;DHT22;6427;49.754;6.106;2023-03-29T04:37:19;7.80;99.90
12726;DHT22;6427;49.754;6.106;2023-03-29T04:39:48;7.70;99.90
12726;DHT22;6427;49.754;6.106;2023-03-29T04:42:16;7.70;99.90
12726;DHT22;6427;49.754;6.106;2023-03-29T04:44:43;7.60;99.90
12726;DHT22;6427;49.754;6.106;2023-03-29T04:47:11;7.60;99.90
12726;DHT22;6427;49.754;6.106;2023-03-29T04:49:38;7.60;99.90
12726;DHT22;6427;49.754;6.106;2023-03-29T04:52:06;7.60;99.90
12726;DHT22;6427;49.754;6.106;2023-03-29T04:54:33;7.60;99.90
12726;DHT22;6427;49.754;6.106;2023-03-29T04:57:01;7.60;99.90
12726;DHT22;6427;49.754;6.106;2023-03-29T04:59:28;7.60;99.90
12726;DHT22;6427;49.754;6.106;2023-03-29T05:01:56;7.50;99.90
12726;DHT22;6427;49.754;6.106;2023-03-29T05:04:23;7.50;99.90
12726;DHT22;6427;49.754;6.106;2023-03-29T05:06:51;7.50;99.90
12726;DHT22;6427;49.754;6.106;2023-03-29T05:09:19;7.50;99.90
12726;DHT22;6427;49.754;6.106;2023-03-29T05:11:47;7.50;99.90
12726;DHT22;6427;49.754;6.106;2023-03-29T05:14:14;7.50;99.90
12726;DHT22;6427;49.754;6.106;2023-03-29T05:16:42;7.60;99.90
12726;DHT22;6427;49.754;6.106;2023-03-29T05:19:09;7.60;99.90
12726;DHT22;6427;49.754;6.106;2023-03-29T05:21:37;7.60;99.90
12726;DHT22;6427;49.754;6.106;2023-03-29T05:24:04;7.60;99.90
12726;DHT22;6427;49.754;6.106;2023-03-29T05:26:32;7.60;99.90
12726;DHT22;6427;49.754;6.106;2023-03-29T05:28:59;7.60;99.90
12726;DHT22;6427;49.754;6.106;2023-03-29T05:31:27;7.70;99.90
12726;DHT22;6427;49.754;6.106;2023-03-29T05:33:54;7.70;99.90
12726;DHT22;6427;49.754;6.106;2023-03-29T05:36:22;7.70;99.90
12726;DHT22;6427;49.754;6.106;2023-03-29T05:38:50;7.70;99.90
12726;DHT22;6427;49.754;6.106;2023-03-29T05:41:17;7.70;99.90
12726;DHT22;6427;49.754;6.106;2023-03-29T05:43:45;7.70;99.90
12726;DHT22;6427;49.754;6.106;2023-03-29T05:46:12;7.70;99.90
12726;DHT22;6427;49.754;6.106;2023-03-29T05:48:40;7.70;99.90
12726;DHT22;6427;49.754;6.106;2023-03-29T05:51:07;7.60;99.90
12726;DHT22;6427;49.754;6.106;2023-03-29T05:53:35;7.90;99.90
12726;DHT22;6427;49.754;6.106;2023-03-29T05:56:02;7.90;99.90
12726;DHT22;6427;49.754;6.106;2023-03-29T05:58:30;7.90;99.90
12726;DHT22;6427;49.754;6.106;2023-03-29T06:00:58;7.90;99.90
12726;DHT22;6427;49.754;6.106;2023-03-29T06:03:25;7.90;99.90
12726;DHT22;6427;49.754;6.106;2023-03-29T06:05:57;7.90;99.90
12726;DHT22;6427;49.754;6.106;2023-03-29T06:08:24;7.90;99.90
12726;DHT22;6427;49.754;6.106;2023-03-29T06:10:55;7.90;99.90
12726;DHT22;6427;49.754;6.106;2023-03-29T06:13:18;7.90;99.90
12726;DHT22;6427;49.754;6.106;2023-03-29T06:15:46;8.20;99.90
12726;DHT22;6427;49.754;6.106;2023-03-29T06:18:14;8.20;99.90
12726;DHT22;6427;49.754;6.106;2023-03-29T06:20:41;8.20;99.90
12726;DHT22;6427;49.754;6.106;2023-03-29T06:23:09;8.10;99.90
12726;DHT22;6427;49.754;6.106;2023-03-29T06:25:36;8.20;99.90
12726;DHT22;6427;49.754;6.106;2023-03-29T06:28:04;8.10;99.90
12726;DHT22;6427;49.754;6.106;2023-03-29T06:30:31;8.40;99.90
12726;DHT22;6427;49.754;6.106;2023-03-29T06:32:59;8.40;99.90
12726;DHT22;6427;49.754;6.106;2023-03-29T06:35:26;8.40;99.90
12726;DHT22;6427;49.754;6.106;2023-03-29T06:37:54;8.40;99.90
12726;DHT22;6427;49.754;6.106;2023-03-29T06:40:21;8.30;99.90
12726;DHT22;6427;49.754;6.106;2023-03-29T06:42:49;8.30;99.90
12726;DHT22;6427;49.754;6.106;2023-03-29T06:45:17;8.30;99.90
12726;DHT22;6427;49.754;6.106;2023-03-29T06:47:44;8.60;99.90
12726;DHT22;6427;49.754;6.106;2023-03-29T06:50:12;8.60;99.90
12726;DHT22;6427;49.754;6.106;2023-03-29T06:52:39;8.60;99.90
12726;DHT22;6427;49.754;6.106;2023-03-29T06:55:07;8.60;99.90
12726;DHT22;6427;49.754;6.106;2023-03-29T06:57:34;8.80;99.90
12726;DHT22;6427;49.754;6.106;2023-03-29T07:00:02;8.80;99.90
12726;DHT22;6427;49.754;6.106;2023-03-29T07:02:29;8.80;99.90
12726;DHT22;6427;49.754;6.106;2023-03-29T07:04:57;8.80;99.90
12726;DHT22;6427;49.754;6.106;2023-03-29T07:07:25;8.80;99.90
12726;DHT22;6427;49.754;6.106;2023-03-29T07:09:52;8.80;99.90
12726;DHT22;6427;49.754;6.106;2023-03-29T07:12:22;9.10;99.90
12726;DHT22;6427;49.754;6.106;2023-03-29T07:14:50;9.10;99.90
12726;DHT22;6427;49.754;6.106;2023-03-29T07:17:18;9.10;99.90
12726;DHT22;6427;49.754;6.106;2023-03-29T07:19:45;9.10;99.90
12726;DHT22;6427;49.754;6.106;2023-03-29T07:22:13;9.10;99.90
12726;DHT22;6427;49.754;6.106;2023-03-29T07:24:41;9.10;99.90
12726;DHT22;6427;49.754;6.106;2023-03-29T07:27:08;9.10;99.90
12726;DHT22;6427;49.754;6.106;2023-03-29T07:29:36;9.30;99.90
12726;DHT22;6427;49.754;6.106;2023-03-29T07:32:03;9.30;99.90
12726;DHT22;6427;49.754;6.106;2023-03-29T07:34:31;9.30;99.90
12726;DHT22;6427;49.754;6.106;2023-03-29T07:36:59;9.30;99.90
12726;DHT22;6427;49.754;6.106;2023-03-29T07:39:26;9.30;99.90
12726;DHT22;6427;49.754;6.106;2023-03-29T07:41:55;9.30;99.90
12726;DHT22;6427;49.754;6.106;2023-03-29T07:44:21;9.30;99.90
12726;DHT22;6427;49.754;6.106;2023-03-29T07:46:49;9.40;99.90
12726;DHT22;6427;49.754;6.106;2023-03-29T07:49:16;9.40;99.90
12726;DHT22;6427;49.754;6.106;2023-03-29T07:51:44;9.50;99.90
12726;DHT22;6427;49.754;6.106;2023-03-29T07:54:11;9.50;99.90
12726;DHT22;6427;49.754;6.106;2023-03-29T07:56:39;9.60;99.90
12726;DHT22;6427;49.754;6.106;2023-03-29T07:59:07;9.70;99.90
12726;DHT22;6427;49.754;6.106;2023-03-29T08:01:35;9.70;99.90
12726;DHT22;6427;49.754;6.106;2023-03-29T08:04:02;9.80;99.90
12726;DHT22;6427;49.754;6.106;2023-03-29T08:06:30;9.90;99.90
12726;DHT22;6427;49.754;6.106;2023-03-29T08:08:57;10.00;99.90
12726;DHT22;6427;49.754;6.106;2023-03-29T08:11:25;10.10;99.90
12726;DHT22;6427;49.754;6.106;2023-03-29T08:13:52;10.30;99.90
12726;DHT22;6427;49.754;6.106;2023-03-29T08:16:20;10.40;99.90
12726;DHT22;6427;49.754;6.106;2023-03-29T08:18:48;10.50;99.90
12726;DHT22;6427;49.754;6.106;2023-03-29T08:21:15;10.50;99.90
12726;DHT22;6427;49.754;6.106;2023-03-29T08:23:43;10.80;99.90
12726;DHT22;6427;49.754;6.106;2023-03-29T08:26:10;10.90;99.90
12726;DHT22;6427;49.754;6.106;2023-03-29T08:28:38;11.00;99.90
12726;DHT22;6427;49.754;6.106;2023-03-29T08:31:06;11.00;99.90
12726;DHT22;6427;49.754;6.106;2023-03-29T08:33:33;11.10;99.90
12726;DHT22;6427;49.754;6.106;2023-03-29T08:36:01;11.20;99.90
12726;DHT22;6427;49.754;6.106;2023-03-29T08:38:28;11.20;99.90
12726;DHT22;6427;49.754;6.106;2023-03-29T08:40:56;11.30;99.90
12726;DHT22;6427;49.754;6.106;2023-03-29T08:46:02;11.40;99.90
12726;DHT22;6427;49.754;6.106;2023-03-29T08:48:53;11.50;99.90
12726;DHT22;6427;49.754;6.106;2023-03-29T08:51:20;11.60;99.90
12726;DHT22;6427;49.754;6.106;2023-03-29T08:54:10;11.70;99.90
12726;DHT22;6427;49.754;6.106;2023-03-29T08:56:21;11.70;99.90
12726;DHT22;6427;49.754;6.106;2023-03-29T08:58:47;11.80;99.90
12726;DHT22;6427;49.754;6.106;2023-03-29T09:01:15;12.10;99.90
12726;DHT22;6427;49.754;6.106;2023-03-29T09:06:17;12.20;99.90
12726;DHT22;6427;49.754;6.106;2023-03-29T09:08:47;12.30;99.90
12726;DHT22;6427;49.754;6.106;2023-03-29T09:14:03;12.60;99.90
12726;DHT22;6427;49.754;6.106;2023-03-29T09:19:40;12.50;99.90
12726;DHT22;6427;49.754;6.106;2023-03-29T09:24:39;12.40;99.90
12726;DHT22;6427;49.754;6.106;2023-03-29T09:27:14;12.40;99.90
12726;DHT22;6427;49.754;6.106;2023-03-29T09:29:58;12.50;99.90
12726;DHT22;6427;49.754;6.106;2023-03-29T09:32:29;12.50;99.90
12726;DHT22;6427;49.754;6.106;2023-03-29T09:35:00;12.60;99.90
12726;DHT22;6427;49.754;6.106;2023-03-29T09:37:33;12.70;99.90
12726;DHT22;6427;49.754;6.106;2023-03-29T09:40:00;13.10;99.90
12726;DHT22;6427;49.754;6.106;2023-03-29T09:42:27;13.20;99.90
12726;DHT22;6427;49.754;6.106;2023-03-29T09:44:56;13.20;99.90
12726;DHT22;6427;49.754;6.106;2023-03-29T09:47:37;13.30;99.90
12726;DHT22;6427;49.754;6.106;2023-03-29T09:52:26;13.30;99.90
12726;DHT22;6427;49.754;6.106;2023-03-29T09:54:54;13.40;99.90
12726;DHT22;6427;49.754;6.106;2023-03-29T09:57:21;13.40;99.90
12726;DHT22;6427;49.754;6.106;2023-03-29T09:59:49;13.60;99.90
12726;DHT22;6427;49.754;6.106;2023-03-29T10:02:17;13.90;99.90
12726;DHT22;6427;49.754;6.106;2023-03-29T10:04:44;14.00;99.90
12726;DHT22;6427;49.754;6.106;2023-03-29T10:07:15;14.10;99.90
12726;DHT22;6427;49.754;6.106;2023-03-29T10:09:42;14.10;99.90
12726;DHT22;6427;49.754;6.106;2023-03-29T10:12:10;14.20;99.90
12726;DHT22;6427;49.754;6.106;2023-03-29T10:14:47;14.30;99.90
12726;DHT22;6427;49.754;6.106;2023-03-29T10:17:18;14.40;99.90
12726;DHT22;6427;49.754;6.106;2023-03-29T10:19:33;14.70;99.90
12726;DHT22;6427;49.754;6.106;2023-03-29T10:22:01;14.80;99.90
12726;DHT22;6427;49.754;6.106;2023-03-29T10:24:27;14.80;99.90
12726;DHT22;6427;49.754;6.106;2023-03-29T10:27:01;14.80;99.80
12726;DHT22;6427;49.754;6.106;2023-03-29T10:29:34;14.80;99.70
12726;DHT22;6427;49.754;6.106;2023-03-29T10:31:56;14.90;99.70
12726;DHT22;6427;49.754;6.106;2023-03-29T10:34:23;15.00;99.80
12726;DHT22;6427;49.754;6.106;2023-03-29T10:36:54;15.10;99.60
12726;DHT22;6427;49.754;6.106;2023-03-29T10:39:18;15.30;99.50
12726;DHT22;6427;49.754;6.106;2023-03-29T10:41:48;15.40;99.20
12726;DHT22;6427;49.754;6.106;2023-03-29T10:44:24;15.60;99.20
12726;DHT22;6427;49.754;6.106;2023-03-29T10:46:50;15.70;99.00
12726;DHT22;6427;49.754;6.106;2023-03-29T10:49:18;15.80;98.60
12726;DHT22;6427;49.754;6.106;2023-03-29T10:51:46;15.90;98.50
12726;DHT22;6427;49.754;6.106;2023-03-29T10:54:13;15.80;98.40
12726;DHT22;6427;49.754;6.106;2023-03-29T10:56:41;16.00;97.90
12726;DHT22;6427;49.754;6.106;2023-03-29T11:07:31;16.20;98.70
12726;DHT22;6427;49.754;6.106;2023-03-29T11:12:52;16.30;98.60
12726;DHT22;6427;49.754;6.106;2023-03-29T11:15:34;16.40;98.80
12726;DHT22;6427;49.754;6.106;2023-03-29T11:18:05;16.50;98.50
12726;DHT22;6427;49.754;6.106;2023-03-29T11:20:43;16.60;98.30
12726;DHT22;6427;49.754;6.106;2023-03-29T11:31:05;16.90;97.70
12726;DHT22;6427;49.754;6.106;2023-03-29T11:38:53;17.00;97.80
12726;DHT22;6427;49.754;6.106;2023-03-29T11:41:26;17.10;97.40
12726;DHT22;6427;49.754;6.106;2023-03-29T11:44:00;17.10;97.20
12726;DHT22;6427;49.754;6.106;2023-03-29T11:49:08;17.50;96.80
12726;DHT22;6427;49.754;6.106;2023-03-29T11:51:51;17.60;96.70
12726;DHT22;6427;49.754;6.106;2023-03-29T11:54:26;17.80;96.40
12726;DHT22;6427;49.754;6.106;2023-03-29T11:57:02;17.90;95.80
12726;DHT22;6427;49.754;6.106;2023-03-29T11:59:30;17.80;95.40
12726;DHT22;6427;49.754;6.106;2023-03-29T12:02:15;17.90;94.30
12726;DHT22;6427;49.754;6.106;2023-03-29T12:04:40;17.80;94.20
12726;DHT22;6427;49.754;6.106;2023-03-29T12:07:12;17.60;94.20
12726;DHT22;6427;49.754;6.106;2023-03-29T12:09:46;17.40;94.40
12726;DHT22;6427;49.754;6.106;2023-03-29T12:12:28;17.20;94.80
12726;DHT22;6427;49.754;6.106;2023-03-29T12:15:04;17.10;95.30
12726;DHT22;6427;49.754;6.106;2023-03-29T12:17:36;17.10;95.70
12726;DHT22;6427;49.754;6.106;2023-03-29T12:22:26;16.90;96.80
12726;DHT22;6427;49.754;6.106;2023-03-29T12:24:53;16.80;97.30
12726;DHT22;6427;49.754;6.106;2023-03-29T12:27:23;16.80;97.40
12726;DHT22;6427;49.754;6.106;2023-03-29T12:32:37;16.70;97.90
12726;DHT22;6427;49.754;6.106;2023-03-29T12:38:03;16.90;98.60
12726;DHT22;6427;49.754;6.106;2023-03-29T12:40:27;16.80;98.90
12726;DHT22;6427;49.754;6.106;2023-03-29T12:43:07;16.70;99.20
12726;DHT22;6427;49.754;6.106;2023-03-29T12:45:37;16.70;99.80
12726;DHT22;6427;49.754;6.106;2023-03-29T12:48:05;16.70;99.90
12726;DHT22;6427;49.754;6.106;2023-03-29T12:50:36;16.70;99.90
12726;DHT22;6427;49.754;6.106;2023-03-29T12:59:03;16.80;99.90
12726;DHT22;6427;49.754;6.106;2023-03-29T13:01:29;16.70;99.90
12726;DHT22;6427;49.754;6.106;2023-03-29T13:06:33;16.40;99.90
12726;DHT22;6427;49.754;6.106;2023-03-29T13:09:22;16.30;99.90
12726;DHT22;6427;49.754;6.106;2023-03-29T13:11:51;16.20;99.90
12726;DHT22;6427;49.754;6.106;2023-03-29T13:14:19;16.10;99.90
12726;DHT22;6427;49.754;6.106;2023-03-29T13:16:46;16.00;99.90
12726;DHT22;6427;49.754;6.106;2023-03-29T13:19:26;16.00;99.90
12726;DHT22;6427;49.754;6.106;2023-03-29T13:21:53;15.90;99.90
12726;DHT22;6427;49.754;6.106;2023-03-29T13:32:47;16.50;99.90
12726;DHT22;6427;49.754;6.106;2023-03-29T13:38:23;16.40;99.90
12726;DHT22;6427;49.754;6.106;2023-03-29T13:43:21;16.30;99.90
12726;DHT22;6427;49.754;6.106;2023-03-29T13:48:27;16.30;99.90
12726;DHT22;6427;49.754;6.106;2023-03-29T13:53:48;16.40;99.90
12726;DHT22;6427;49.754;6.106;2023-03-29T13:56:38;16.50;99.90
12726;DHT22;6427;49.754;6.106;2023-03-29T13:58:50;16.60;99.90
12726;DHT22;6427;49.754;6.106;2023-03-29T14:01:24;16.80;99.90
12726;DHT22;6427;49.754;6.106;2023-03-29T14:03:49;16.90;99.90
12726;DHT22;6427;49.754;6.106;2023-03-29T14:06:20;16.90;99.90
12726;DHT22;6427;49.754;6.106;2023-03-29T14:08:45;17.20;99.90
12726;DHT22;6427;49.754;6.106;2023-03-29T14:11:31;17.40;99.90
12726;DHT22;6427;49.754;6.106;2023-03-29T14:13:43;17.40;99.90
12726;DHT22;6427;49.754;6.106;2023-03-29T14:16:10;17.40;99.90
12726;DHT22;6427;49.754;6.106;2023-03-29T14:18:39;17.50;99.90
12726;DHT22;6427;49.754;6.106;2023-03-29T14:21:05;17.60;99.90
12726;DHT22;6427;49.754;6.106;2023-03-29T14:23:35;17.50;99.90
12726;DHT22;6427;49.754;6.106;2023-03-29T14:26:16;17.40;99.90
12726;DHT22;6427;49.754;6.106;2023-03-29T14:28:50;17.40;99.90
12726;DHT22;6427;49.754;6.106;2023-03-29T14:31:17;17.40;99.90
12726;DHT22;6427;49.754;6.106;2023-03-29T14:33:43;17.30;99.90
12726;DHT22;6427;49.754;6.106;2023-03-29T14:36:11;17.30;99.90
12726;DHT22;6427;49.754;6.106;2023-03-29T14:38:39;17.50;99.90
12726;DHT22;6427;49.754;6.106;2023-03-29T14:41:06;17.50;99.90
12726;DHT22;6427;49.754;6.106;2023-03-29T14:43:34;17.50;99.90
12726;DHT22;6427;49.754;6.106;2023-03-29T14:46:01;17.50;99.90
12726;DHT22;6427;49.754;6.106;2023-03-29T14:48:29;17.50;99.90
12726;DHT22;6427;49.754;6.106;2023-03-29T14:50:56;17.70;99.90
12726;DHT22;6427;49.754;6.106;2023-03-29T14:53:24;17.80;99.90
12726;DHT22;6427;49.754;6.106;2023-03-29T14:55:51;18.00;99.90
12726;DHT22;6427;49.754;6.106;2023-03-29T14:58:26;18.00;99.90
12726;DHT22;6427;49.754;6.106;2023-03-29T15:00:50;18.00;99.90
12726;DHT22;6427;49.754;6.106;2023-03-29T15:03:17;18.00;99.90
12726;DHT22;6427;49.754;6.106;2023-03-29T15:05:56;18.00;99.90
12726;DHT22;6427;49.754;6.106;2023-03-29T15:08:36;18.00;99.90
12726;DHT22;6427;49.754;6.106;2023-03-29T15:11:17;18.00;99.90
12726;DHT22;6427;49.754;6.106;2023-03-29T15:13:42;17.90;99.90
12726;DHT22;6427;49.754;6.106;2023-03-29T15:16:11;18.00;99.90
12726;DHT22;6427;49.754;6.106;2023-03-29T15:18:37;18.00;99.90
12726;DHT22;6427;49.754;6.106;2023-03-29T15:21:08;17.90;99.90
12726;DHT22;6427;49.754;6.106;2023-03-29T15:23:57;17.90;99.90
12726;DHT22;6427;49.754;6.106;2023-03-29T15:26:26;17.90;99.90
12726;DHT22;6427;49.754;6.106;2023-03-29T15:28:52;17.90;99.90
12726;DHT22;6427;49.754;6.106;2023-03-29T15:31:25;17.90;99.90
12726;DHT22;6427;49.754;6.106;2023-03-29T15:34:02;17.90;99.90
12726;DHT22;6427;49.754;6.106;2023-03-29T15:36:28;18.00;99.90
12726;DHT22;6427;49.754;6.106;2023-03-29T15:38:56;18.00;99.90
12726;DHT22;6427;49.754;6.106;2023-03-29T15:41:23;18.00;99.90
12726;DHT22;6427;49.754;6.106;2023-03-29T15:43:51;18.00;99.90
12726;DHT22;6427;49.754;6.106;2023-03-29T15:46:19;18.30;99.90
12726;DHT22;6427;49.754;6.106;2023-03-29T15:48:46;18.50;99.90
12726;DHT22;6427;49.754;6.106;2023-03-29T15:51:14;18.50;99.90
12726;DHT22;6427;49.754;6.106;2023-03-29T15:53:42;18.40;99.90
12726;DHT22;6427;49.754;6.106;2023-03-29T15:56:11;18.40;99.90
12726;DHT22;6427;49.754;6.106;2023-03-29T15:58:37;18.40;99.90
12726;DHT22;6427;49.754;6.106;2023-03-29T16:01:27;18.40;99.90
12726;DHT22;6427;49.754;6.106;2023-03-29T16:03:54;18.40;99.90
12726;DHT22;6427;49.754;6.106;2023-03-29T16:06:21;18.60;99.80
12726;DHT22;6427;49.754;6.106;2023-03-29T16:08:49;18.60;99.30
12726;DHT22;6427;49.754;6.106;2023-03-29T16:11:16;18.70;98.70
12726;DHT22;6427;49.754;6.106;2023-03-29T16:13:44;18.60;98.50
12726;DHT22;6427;49.754;6.106;2023-03-29T16:16:11;18.50;98.60
12726;DHT22;6427;49.754;6.106;2023-03-29T16:18:39;18.40;98.70
12726;DHT22;6427;49.754;6.106;2023-03-29T16:21:13;18.50;98.40
12726;DHT22;6427;49.754;6.106;2023-03-29T16:23:37;18.50;98.10
12726;DHT22;6427;49.754;6.106;2023-03-29T16:26:04;18.40;98.10
12726;DHT22;6427;49.754;6.106;2023-03-29T16:28:32;18.50;97.80
12726;DHT22;6427;49.754;6.106;2023-03-29T16:31:00;18.70;97.10
12726;DHT22;6427;49.754;6.106;2023-03-29T16:33:27;18.60;96.80
12726;DHT22;6427;49.754;6.106;2023-03-29T16:35:55;18.40;96.90
12726;DHT22;6427;49.754;6.106;2023-03-29T16:38:22;18.30;96.90
12726;DHT22;6427;49.754;6.106;2023-03-29T16:40:50;18.30;96.90
12726;DHT22;6427;49.754;6.106;2023-03-29T16:43:18;18.20;96.70
12726;DHT22;6427;49.754;6.106;2023-03-29T16:45:45;18.10;96.60
12726;DHT22;6427;49.754;6.106;2023-03-29T16:48:14;18.00;96.60
12726;DHT22;6427;49.754;6.106;2023-03-29T16:50:40;18.00;96.60
12726;DHT22;6427;49.754;6.106;2023-03-29T16:53:08;17.90;96.60
12726;DHT22;6427;49.754;6.106;2023-03-29T16:55:35;17.90;96.60
12726;DHT22;6427;49.754;6.106;2023-03-29T16:58:03;17.80;96.40
12726;DHT22;6427;49.754;6.106;2023-03-29T17:00:30;17.80;96.30
12726;DHT22;6427;49.754;6.106;2023-03-29T17:02:58;17.70;96.10
12726;DHT22;6427;49.754;6.106;2023-03-29T17:05:28;17.70;95.90
12726;DHT22;6427;49.754;6.106;2023-03-29T17:07:56;17.70;95.70
12726;DHT22;6427;49.754;6.106;2023-03-29T17:10:24;17.60;95.60
12726;DHT22;6427;49.754;6.106;2023-03-29T17:12:51;17.60;95.50
12726;DHT22;6427;49.754;6.106;2023-03-29T17:15:19;17.50;95.40
12726;DHT22;6427;49.754;6.106;2023-03-29T17:17:46;17.50;95.20
12726;DHT22;6427;49.754;6.106;2023-03-29T17:20:14;17.70;94.60
12726;DHT22;6427;49.754;6.106;2023-03-29T17:22:41;17.70;94.40
12726;DHT22;6427;49.754;6.106;2023-03-29T17:25:09;17.60;94.40
12726;DHT22;6427;49.754;6.106;2023-03-29T17:27:36;17.60;94.50
12726;DHT22;6427;49.754;6.106;2023-03-29T17:30:04;17.50;94.40
12726;DHT22;6427;49.754;6.106;2023-03-29T17:32:32;17.50;94.60
12726;DHT22;6427;49.754;6.106;2023-03-29T17:34:59;17.40;94.80
12726;DHT22;6427;49.754;6.106;2023-03-29T17:37:27;17.30;94.80